sensor_id;sensor_type;location;lat;lon;timestamp;temperature;humidity
7648;DHT22;3866;48.020;11.720;2023-10-08T00:01:08;16.50;99.90
7648;DHT22;3866;48.020;11.720;2023-10-08T00:03:38;16.40;99.90
7648;DHT22;3866;48.020;11.720;2023-10-08T00:06:07;16.50;99.90
7648;DHT22;3866;48.020;11.720;2023-10-08T00:08:38;16.50;99.90
7648;DHT22;3866;48.020;11.720;2023-10-08T00:11:05;16.40;99.90
7648;DHT22;3866;48.020;11.720;2023-10-08T00:13:33;16.50;99.90
7648;DHT22;3866;48.020;11.720;2023-10-08T00:16:05;16.50;99.90
7648;DHT22;3866;48.020;11.720;2023-10-08T00:18:35;16.50;99.90
7648;DHT22;3866;48.020;11.720;2023-10-08T00:21:04;16.50;99.90
7648;DHT22;3866;48.020;11.720;2023-10-08T00:23:42;16.60;99.90
7648;DHT22;3866;48.020;11.720;2023-10-08T00:26:15;16.60;99.90
7648;DHT22;3866;48.020;11.720;2023-10-08T00:28:44;16.60;99.90
7648;DHT22;3866;48.020;11.720;2023-10-08T00:31:13;16.70;99.90
7648;DHT22;3866;48.020;11.720;2023-10-08T00:33:43;16.70;99.90
7648;DHT22;3866;48.020;11.720;2023-10-08T00:36:12;16.80;99.90
7648;DHT22;3866;48.020;11.720;2023-10-08T00:38:44;16.80;99.90
7648;DHT22;3866;48.020;11.720;2023-10-08T00:41:15;16.90;99.90
7648;DHT22;3866;48.020;11.720;2023-10-08T00:43:47;17.00;99.90
7648;DHT22;3866;48.020;11.720;2023-10-08T00:46:16;17.00;99.90
7648;DHT22;3866;48.020;11.720;2023-10-08T00:48:49;17.10;99.90
7648;DHT22;3866;48.020;11.720;2023-10-08T00:51:19;17.10;99.90
7648;DHT22;3866;48.020;11.720;2023-10-08T00:53:54;17.20;99.90
7648;DHT22;3866;48.020;11.720;2023-10-08T00:56:26;17.20;99.90
7648;DHT22;3866;48.020;11.720;2023-10-08T00:59:10;17.20;99.90
7648;DHT22;3866;48.020;11.720;2023-10-08T01:01:41;17.30;99.90
7648;DHT22;3866;48.020;11.720;2023-10-08T01:04:15;17.40;99.90
7648;DHT22;3866;48.020;11.720;2023-10-08T01:06:44;17.40;99.90
7648;DHT22;3866;48.020;11.720;2023-10-08T01:09:14;17.50;99.90
7648;DHT22;3866;48.020;11.720;2023-10-08T01:11:44;17.50;99.90
7648;DHT22;3866;48.020;11.720;2023-10-08T01:14:15;17.50;99.90
7648;DHT22;3866;48.020;11.720;2023-10-08T01:16:46;17.60;99.90
7648;DHT22;3866;48.020;11.720;2023-10-08T01:19:18;17.60;99.90
7648;DHT22;3866;48.020;11.720;2023-10-08T01:21:47;17.70;99.90
7648;DHT22;3866;48.020;11.720;2023-10-08T01:24:15;17.80;99.90
7648;DHT22;3866;48.020;11.720;2023-10-08T01:26:43;17.80;99.90
7648;DHT22;3866;48.020;11.720;2023-10-08T01:29:11;17.90;99.90
7648;DHT22;3866;48.020;11.720;2023-10-08T01:31:46;18.00;99.90
7648;DHT22;3866;48.020;11.720;2023-10-08T01:34:14;18.00;99.90
7648;DHT22;3866;48.020;11.720;2023-10-08T01:36:42;18.00;99.90
7648;DHT22;3866;48.020;11.720;2023-10-08T01:39:10;18.00;99.90
7648;DHT22;3866;48.020;11.720;2023-10-08T01:41:45;18.00;99.90
7648;DHT22;3866;48.020;11.720;2023-10-08T01:44:13;18.00;99.90
7648;DHT22;3866;48.020;11.720;2023-10-08T01:46:40;18.00;99.90
7648;DHT22;3866;48.020;11.720;2023-10-08T01:49:07;18.00;99.90
7648;DHT22;3866;48.020;11.720;2023-10-08T01:51:40;18.00;99.90
7648;DHT22;3866;48.020;11.720;2023-10-08T01:54:12;18.00;99.90
7648;DHT22;3866;48.020;11.720;2023-10-08T01:56:41;18.00;99.90
7648;DHT22;3866;48.020;11.720;2023-10-08T01:59:10;17.90;99.90
7648;DHT22;3866;48.020;11.720;2023-10-08T02:01:39;17.90;99.90
7648;DHT22;3866;48.020;11.720;2023-10-08T02:04:06;17.90;99.90
7648;DHT22;3866;48.020;11.720;2023-10-08T02:06:35;17.90;99.90
7648;DHT22;3866;48.020;11.720;2023-10-08T02:09:02;17.90;99.90
7648;DHT22;3866;48.020;11.720;2023-10-08T02:11:42;17.90;99.90
7648;DHT22;3866;48.020;11.720;2023-10-08T02:14:10;17.80;99.90
7648;DHT22;3866;48.020;11.720;2023-10-08T02:16:40;17.80;99.90
7648;DHT22;3866;48.020;11.720;2023-10-08T02:19:08;17.80;99.90
7648;DHT22;3866;48.020;11.720;2023-10-08T02:21:37;17.80;99.90
7648;DHT22;3866;48.020;11.720;2023-10-08T02:24:06;17.80;99.90
7648;DHT22;3866;48.020;11.720;2023-10-08T02:26:34;17.80;99.90
7648;DHT22;3866;48.020;11.720;2023-10-08T02:29:01;17.80;99.90
7648;DHT22;3866;48.020;11.720;2023-10-08T02:31:33;17.80;99.90
7648;DHT22;3866;48.020;11.720;2023-10-08T02:34:01;17.80;99.90
7648;DHT22;3866;48.020;11.720;2023-10-08T02:36:28;17.70;99.90
7648;DHT22;3866;48.020;11.720;2023-10-08T02:38:56;17.70;99.90
7648;DHT22;3866;48.020;11.720;2023-10-08T02:41:23;17.70;99.90
7648;DHT22;3866;48.020;11.720;2023-10-08T02:43:50;17.60;99.90
7648;DHT22;3866;48.020;11.720;2023-10-08T02:46:18;17.70;99.90
7648;DHT22;3866;48.020;11.720;2023-10-08T02:48:46;17.70;99.90
7648;DHT22;3866;48.020;11.720;2023-10-08T02:51:13;17.70;99.90
7648;DHT22;3866;48.020;11.720;2023-10-08T02:53:40;17.70;99.90
7648;DHT22;3866;48.020;11.720;2023-10-08T02:56:09;17.70;99.90
7648;DHT22;3866;48.020;11.720;2023-10-08T02:58:39;17.70;99.90
7648;DHT22;3866;48.020;11.720;2023-10-08T03:01:07;17.70;99.90
7648;DHT22;3866;48.020;11.720;2023-10-08T03:03:39;17.70;99.90
7648;DHT22;3866;48.020;11.720;2023-10-08T03:06:07;17.70;99.90
7648;DHT22;3866;48.020;11.720;2023-10-08T03:08:37;17.70;99.90
7648;DHT22;3866;48.020;11.720;2023-10-08T03:11:09;17.70;99.90
7648;DHT22;3866;48.020;11.720;2023-10-08T03:13:43;17.70;99.90
7648;DHT22;3866;48.020;11.720;2023-10-08T03:16:12;17.70;99.90
7648;DHT22;3866;48.020;11.720;2023-10-08T03:18:40;17.80;99.90
7648;DHT22;3866;48.020;11.720;2023-10-08T03:21:12;17.70;99.90
7648;DHT22;3866;48.020;11.720;2023-10-08T03:24:08;17.70;99.90
7648;DHT22;3866;48.020;11.720;2023-10-08T03:26:49;17.70;99.90
7648;DHT22;3866;48.020;11.720;2023-10-08T03:29:21;17.70;99.90
7648;DHT22;3866;48.020;11.720;2023-10-08T03:31:56;17.80;99.90
7648;DHT22;3866;48.020;11.720;2023-10-08T03:34:24;17.80;99.90
7648;DHT22;3866;48.020;11.720;2023-10-08T03:36:55;17.80;99.90
7648;DHT22;3866;48.020;11.720;2023-10-08T03:39:31;17.80;99.90
7648;DHT22;3866;48.020;11.720;2023-10-08T03:42:19;17.80;99.90
7648;DHT22;3866;48.020;11.720;2023-10-08T03:44:47;17.80;99.90
7648;DHT22;3866;48.020;11.720;2023-10-08T03:47:18;17.90;99.90
7648;DHT22;3866;48.020;11.720;2023-10-08T03:49:49;17.90;99.90
7648;DHT22;3866;48.020;11.720;2023-10-08T03:52:18;17.90;99.90
7648;DHT22;3866;48.020;11.720;2023-10-08T03:54:49;18.00;99.90
7648;DHT22;3866;48.020;11.720;2023-10-08T03:57:29;17.90;99.90
7648;DHT22;3866;48.020;11.720;2023-10-08T04:00:14;18.00;99.90
7648;DHT22;3866;48.020;11.720;2023-10-08T04:02:43;18.00;99.90
7648;DHT22;3866;48.020;11.720;2023-10-08T04:05:20;18.00;99.90
7648;DHT22;3866;48.020;11.720;2023-10-08T04:07:54;18.00;99.90
7648;DHT22;3866;48.020;11.720;2023-10-08T04:10:43;18.00;99.90
7648;DHT22;3866;48.020;11.720;2023-10-08T04:13:34;18.00;99.90
7648;DHT22;3866;48.020;11.720;2023-10-08T04:16:04;18.00;99.90
7648;DHT22;3866;48.020;11.720;2023-10-08T04:18:32;18.00;99.90
7648;DHT22;3866;48.020;11.720;2023-10-08T04:21:06;18.00;99.90
7648;DHT22;3866;48.020;11.720;2023-10-08T04:23:40;18.00;99.90
7648;DHT22;3866;48.020;11.720;2023-10-08T04:26:07;18.10;99.90
7648;DHT22;3866;48.020;11.720;2023-10-08T04:28:35;18.10;99.90
7648;DHT22;3866;48.020;11.720;2023-10-08T04:31:03;18.00;99.90
7648;DHT22;3866;48.020;11.720;2023-10-08T04:33:42;18.00;99.90
7648;DHT22;3866;48.020;11.720;2023-10-08T04:36:10;18.00;99.90
7648;DHT22;3866;48.020;11.720;2023-10-08T04:38:45;18.10;99.90
7648;DHT22;3866;48.020;11.720;2023-10-08T04:41:14;18.10;99.90
7648;DHT22;3866;48.020;11.720;2023-10-08T04:43:44;18.00;99.90
7648;DHT22;3866;48.020;11.720;2023-10-08T04:46:14;18.10;99.90
7648;DHT22;3866;48.020;11.720;2023-10-08T04:48:58;18.10;99.90
7648;DHT22;3866;48.020;11.720;2023-10-08T04:51:31;18.00;99.90
7648;DHT22;3866;48.020;11.720;2023-10-08T04:54:07;18.10;99.90
7648;DHT22;3866;48.020;11.720;2023-10-08T04:56:34;18.10;99.90
7648;DHT22;3866;48.020;11.720;2023-10-08T04:59:01;18.00;99.90
7648;DHT22;3866;48.020;11.720;2023-10-08T05:01:30;18.10;99.90
7648;DHT22;3866;48.020;11.720;2023-10-08T05:04:13;18.00;99.90
7648;DHT22;3866;48.020;11.720;2023-10-08T05:06:58;18.10;99.90
7648;DHT22;3866;48.020;11.720;2023-10-08T05:09:40;18.10;99.90
7648;DHT22;3866;48.020;11.720;2023-10-08T05:12:13;18.10;99.90
7648;DHT22;3866;48.020;11.720;2023-10-08T05:14:54;18.10;99.90
7648;DHT22;3866;48.020;11.720;2023-10-08T05:17:47;18.10;99.90
7648;DHT22;3866;48.020;11.720;2023-10-08T05:20:24;18.10;99.90
7648;DHT22;3866;48.020;11.720;2023-10-08T05:23:07;18.10;99.90
7648;DHT22;3866;48.020;11.720;2023-10-08T05:25:47;18.00;99.90
7648;DHT22;3866;48.020;11.720;2023-10-08T05:28:24;18.10;99.90
7648;DHT22;3866;48.020;11.720;2023-10-08T05:30:50;18.00;99.90
7648;DHT22;3866;48.020;11.720;2023-10-08T05:33:19;18.00;99.90
7648;DHT22;3866;48.020;11.720;2023-10-08T05:35:54;18.00;99.90
7648;DHT22;3866;48.020;11.720;2023-10-08T05:38:28;18.00;99.90
7648;DHT22;3866;48.020;11.720;2023-10-08T05:41:15;18.00;99.90
7648;DHT22;3866;48.020;11.720;2023-10-08T05:44:16;18.00;99.90
7648;DHT22;3866;48.020;11.720;2023-10-08T05:47:04;17.90;99.90
7648;DHT22;3866;48.020;11.720;2023-10-08T05:49:49;17.90;99.90
7648;DHT22;3866;48.020;11.720;2023-10-08T05:52:35;17.80;99.90
7648;DHT22;3866;48.020;11.720;2023-10-08T05:55:16;17.70;99.90
7648;DHT22;3866;48.020;11.720;2023-10-08T05:57:52;17.60;99.90
7648;DHT22;3866;48.020;11.720;2023-10-08T06:00:30;17.40;99.90
7648;DHT22;3866;48.020;11.720;2023-10-08T06:03:13;17.20;99.90
7648;DHT22;3866;48.020;11.720;2023-10-08T06:05:59;17.20;99.90
7648;DHT22;3866;48.020;11.720;2023-10-08T06:08:43;17.20;99.90
7648;DHT22;3866;48.020;11.720;2023-10-08T06:11:34;17.00;99.90
7648;DHT22;3866;48.020;11.720;2023-10-08T06:14:12;17.10;99.90
7648;DHT22;3866;48.020;11.720;2023-10-08T06:16:53;17.10;99.90
7648;DHT22;3866;48.020;11.720;2023-10-08T06:19:38;17.10;99.90
7648;DHT22;3866;48.020;11.720;2023-10-08T06:22:05;17.20;99.90
7648;DHT22;3866;48.020;11.720;2023-10-08T06:24:32;17.20;99.90
7648;DHT22;3866;48.020;11.720;2023-10-08T06:27:04;17.20;99.90
7648;DHT22;3866;48.020;11.720;2023-10-08T06:29:33;17.20;99.90
7648;DHT22;3866;48.020;11.720;2023-10-08T06:32:00;17.20;99.90
7648;DHT22;3866;48.020;11.720;2023-10-08T06:34:28;17.30;99.90
7648;DHT22;3866;48.020;11.720;2023-10-08T06:36:58;17.30;99.90
7648;DHT22;3866;48.020;11.720;2023-10-08T06:39:25;17.50;99.90
7648;DHT22;3866;48.020;11.720;2023-10-08T06:41:59;17.50;99.90
7648;DHT22;3866;48.020;11.720;2023-10-08T06:44:25;17.50;99.90
7648;DHT22;3866;48.020;11.720;2023-10-08T06:46:54;17.40;99.90
7648;DHT22;3866;48.020;11.720;2023-10-08T06:49:23;17.50;99.90
7648;DHT22;3866;48.020;11.720;2023-10-08T06:51:51;17.50;99.90
7648;DHT22;3866;48.020;11.720;2023-10-08T06:54:19;17.60;99.90
7648;DHT22;3866;48.020;11.720;2023-10-08T06:56:48;17.60;99.90
7648;DHT22;3866;48.020;11.720;2023-10-08T06:59:18;17.70;99.90
7648;DHT22;3866;48.020;11.720;2023-10-08T07:01:48;17.80;99.90
7648;DHT22;3866;48.020;11.720;2023-10-08T07:04:18;18.00;99.90
7648;DHT22;3866;48.020;11.720;2023-10-08T07:06:47;18.00;99.90
7648;DHT22;3866;48.020;11.720;2023-10-08T07:09:14;18.20;99.90
7648;DHT22;3866;48.020;11.720;2023-10-08T07:11:54;18.10;99.90
7648;DHT22;3866;48.020;11.720;2023-10-08T07:14:22;18.30;99.90
7648;DHT22;3866;48.020;11.720;2023-10-08T07:16:53;18.20;99.90
7648;DHT22;3866;48.020;11.720;2023-10-08T07:19:22;18.10;99.90
7648;DHT22;3866;48.020;11.720;2023-10-08T07:21:58;18.00;99.90
7648;DHT22;3866;48.020;11.720;2023-10-08T07:24:29;18.10;99.90
7648;DHT22;3866;48.020;11.720;2023-10-08T07:27:00;18.50;99.90
7648;DHT22;3866;48.020;11.720;2023-10-08T07:29:31;19.00;99.90
7648;DHT22;3866;48.020;11.720;2023-10-08T07:31:58;19.10;99.90
7648;DHT22;3866;48.020;11.720;2023-10-08T07:34:36;19.20;99.90
7648;DHT22;3866;48.020;11.720;2023-10-08T07:37:03;19.00;99.90
7648;DHT22;3866;48.020;11.720;2023-10-08T07:39:31;19.00;99.90
7648;DHT22;3866;48.020;11.720;2023-10-08T07:42:03;19.10;99.90
7648;DHT22;3866;48.020;11.720;2023-10-08T07:44:32;19.40;99.90
7648;DHT22;3866;48.020;11.720;2023-10-08T07:47:01;19.70;99.90
7648;DHT22;3866;48.020;11.720;2023-10-08T07:49:31;20.30;99.90
7648;DHT22;3866;48.020;11.720;2023-10-08T07:51:59;20.20;99.90
7648;DHT22;3866;48.020;11.720;2023-10-08T07:54:27;20.20;99.90
7648;DHT22;3866;48.020;11.720;2023-10-08T07:56:54;20.20;99.90
7648;DHT22;3866;48.020;11.720;2023-10-08T07:59:25;20.10;99.90
7648;DHT22;3866;48.020;11.720;2023-10-08T08:01:52;20.00;99.90
7648;DHT22;3866;48.020;11.720;2023-10-08T08:04:20;20.00;99.90
7648;DHT22;3866;48.020;11.720;2023-10-08T08:06:48;19.90;99.90
7648;DHT22;3866;48.020;11.720;2023-10-08T08:09:18;19.90;99.90
7648;DHT22;3866;48.020;11.720;2023-10-08T08:11:46;19.80;99.90
7648;DHT22;3866;48.020;11.720;2023-10-08T08:14:14;19.80;99.90
7648;DHT22;3866;48.020;11.720;2023-10-08T08:16:43;19.80;99.90
7648;DHT22;3866;48.020;11.720;2023-10-08T08:19:14;19.60;99.90
7648;DHT22;3866;48.020;11.720;2023-10-08T08:21:43;19.60;99.90
7648;DHT22;3866;48.020;11.720;2023-10-08T08:24:12;19.60;99.90
7648;DHT22;3866;48.020;11.720;2023-10-08T08:26:42;19.60;99.90
7648;DHT22;3866;48.020;11.720;2023-10-08T08:29:26;19.60;99.90
7648;DHT22;3866;48.020;11.720;2023-10-08T08:31:54;19.60;99.90
7648;DHT22;3866;48.020;11.720;2023-10-08T08:34:22;19.60;99.90
7648;DHT22;3866;48.020;11.720;2023-10-08T08:36:49;19.50;99.90
7648;DHT22;3866;48.020;11.720;2023-10-08T08:39:17;19.50;99.90
7648;DHT22;3866;48.020;11.720;2023-10-08T08:41:59;19.40;99.90
7648;DHT22;3866;48.020;11.720;2023-10-08T08:44:28;19.40;99.90
7648;DHT22;3866;48.020;11.720;2023-10-08T08:46:58;19.40;99.90
7648;DHT22;3866;48.020;11.720;2023-10-08T08:49:27;19.30;99.90
7648;DHT22;3866;48.020;11.720;2023-10-08T08:51:55;19.40;99.90
7648;DHT22;3866;48.020;11.720;2023-10-08T08:54:26;19.30;99.90
7648;DHT22;3866;48.020;11.720;2023-10-08T08:56:57;19.40;99.90
7648;DHT22;3866;48.020;11.720;2023-10-08T08:59:27;19.40;99.90
7648;DHT22;3866;48.020;11.720;2023-10-08T09:01:56;19.40;99.90
7648;DHT22;3866;48.020;11.720;2023-10-08T09:04:29;19.40;99.90
7648;DHT22;3866;48.020;11.720;2023-10-08T09:06:58;19.30;99.90
7648;DHT22;3866;48.020;11.720;2023-10-08T09:09:31;19.30;99.90
7648;DHT22;3866;48.020;11.720;2023-10-08T09:12:00;19.40;99.90
7648;DHT22;3866;48.020;11.720;2023-10-08T09:14:27;19.30;99.90
7648;DHT22;3866;48.020;11.720;2023-10-08T09:16:58;19.30;99.90
7648;DHT22;3866;48.020;11.720;2023-10-08T09:19:26;19.30;99.90
7648;DHT22;3866;48.020;11.720;2023-10-08T09:22:00;19.30;99.90
7648;DHT22;3866;48.020;11.720;2023-10-08T09:24:29;19.30;99.90
7648;DHT22;3866;48.020;11.720;2023-10-08T09:26:56;19.30;99.90
7648;DHT22;3866;48.020;11.720;2023-10-08T09:29:25;19.40;99.90
7648;DHT22;3866;48.020;11.720;2023-10-08T09:31:53;19.50;99.90
7648;DHT22;3866;48.020;11.720;2023-10-08T09:34:22;19.50;99.90
7648;DHT22;3866;48.020;11.720;2023-10-08T09:36:52;19.60;99.90
7648;DHT22;3866;48.020;11.720;2023-10-08T09:39:20;19.60;99.90
7648;DHT22;3866;48.020;11.720;2023-10-08T09:41:53;19.60;99.90
7648;DHT22;3866;48.020;11.720;2023-10-08T09:44:22;19.60;99.90
7648;DHT22;3866;48.020;11.720;2023-10-08T09:46:56;19.60;99.90
7648;DHT22;3866;48.020;11.720;2023-10-08T09:49:30;19.60;99.90
7648;DHT22;3866;48.020;11.720;2023-10-08T09:52:00;19.60;99.90
7648;DHT22;3866;48.020;11.720;2023-10-08T09:54:30;19.60;99.90
7648;DHT22;3866;48.020;11.720;2023-10-08T09:56:59;19.70;99.90
7648;DHT22;3866;48.020;11.720;2023-10-08T09:59:29;19.70;99.90
7648;DHT22;3866;48.020;11.720;2023-10-08T10:01:57;19.80;99.90
7648;DHT22;3866;48.020;11.720;2023-10-08T10:04:26;19.80;99.90
7648;DHT22;3866;48.020;11.720;2023-10-08T10:06:57;19.90;99.90
7648;DHT22;3866;48.020;11.720;2023-10-08T10:09:25;20.00;99.90
7648;DHT22;3866;48.020;11.720;2023-10-08T10:11:54;20.00;99.90
7648;DHT22;3866;48.020;11.720;2023-10-08T10:14:23;20.20;99.90
7648;DHT22;3866;48.020;11.720;2023-10-08T10:17:15;20.20;99.90
7648;DHT22;3866;48.020;11.720;2023-10-08T10:19:44;20.30;99.90
7648;DHT22;3866;48.020;11.720;2023-10-08T10:22:14;20.30;99.90
7648;DHT22;3866;48.020;11.720;2023-10-08T10:24:42;20.40;99.90
7648;DHT22;3866;48.020;11.720;2023-10-08T10:27:12;20.60;99.90
7648;DHT22;3866;48.020;11.720;2023-10-08T10:29:40;20.50;99.90
7648;DHT22;3866;48.020;11.720;2023-10-08T10:32:10;20.50;99.90
7648;DHT22;3866;48.020;11.720;2023-10-08T10:34:40;20.50;99.90
7648;DHT22;3866;48.020;11.720;2023-10-08T10:37:08;20.70;99.90
7648;DHT22;3866;48.020;11.720;2023-10-08T10:39:53;20.50;99.90
7648;DHT22;3866;48.020;11.720;2023-10-08T10:42:21;20.50;99.90
7648;DHT22;3866;48.020;11.720;2023-10-08T10:44:49;20.50;99.90
7648;DHT22;3866;48.020;11.720;2023-10-08T10:47:16;20.50;99.90
7648;DHT22;3866;48.020;11.720;2023-10-08T10:49:54;20.50;99.90
7648;DHT22;3866;48.020;11.720;2023-10-08T10:52:36;20.50;99.90
7648;DHT22;3866;48.020;11.720;2023-10-08T10:55:11;20.50;99.90
7648;DHT22;3866;48.020;11.720;2023-10-08T10:57:48;20.50;99.90
7648;DHT22;3866;48.020;11.720;2023-10-08T11:00:21;20.50;99.90
7648;DHT22;3866;48.020;11.720;2023-10-08T11:03:08;20.40;99.90
7648;DHT22;3866;48.020;11.720;2023-10-08T11:05:52;20.40;99.90
7648;DHT22;3866;48.020;11.720;2023-10-08T11:08:21;20.40;99.90
7648;DHT22;3866;48.020;11.720;2023-10-08T11:10:49;20.40;99.90
7648;DHT22;3866;48.020;11.720;2023-10-08T11:13:19;20.40;99.90
7648;DHT22;3866;48.020;11.720;2023-10-08T11:15:47;20.40;99.90
7648;DHT22;3866;48.020;11.720;2023-10-08T11:18:18;20.40;99.90
7648;DHT22;3866;48.020;11.720;2023-10-08T11:20:47;20.30;99.90
7648;DHT22;3866;48.020;11.720;2023-10-08T11:23:34;20.30;99.90
7648;DHT22;3866;48.020;11.720;2023-10-08T11:26:03;20.30;99.90
7648;DHT22;3866;48.020;11.720;2023-10-08T11:28:31;20.30;99.90
7648;DHT22;3866;48.020;11.720;2023-10-08T11:31:00;20.30;99.90
7648;DHT22;3866;48.020;11.720;2023-10-08T11:33:34;20.30;99.90
7648;DHT22;3866;48.020;11.720;2023-10-08T11:36:03;20.20;99.90
7648;DHT22;3866;48.020;11.720;2023-10-08T11:38:39;20.30;99.90
7648;DHT22;3866;48.020;11.720;2023-10-08T11:41:13;20.30;99.90
7648;DHT22;3866;48.020;11.720;2023-10-08T11:43:50;20.20;99.90
7648;DHT22;3866;48.020;11.720;2023-10-08T11:46:21;20.20;99.90
7648;DHT22;3866;48.020;11.720;2023-10-08T11:48:48;20.20;99.90
7648;DHT22;3866;48.020;11.720;2023-10-08T11:51:16;20.10;99.90
7648;DHT22;3866;48.020;11.720;2023-10-08T11:53:45;20.20;99.90
7648;DHT22;3866;48.020;11.720;2023-10-08T11:56:12;20.10;99.90
7648;DHT22;3866;48.020;11.720;2023-10-08T11:58:40;20.10;99.90
7648;DHT22;3866;48.020;11.720;2023-10-08T12:01:10;20.20;99.90
7648;DHT22;3866;48.020;11.720;2023-10-08T12:03:41;20.20;99.90
7648;DHT22;3866;48.020;11.720;2023-10-08T12:06:09;20.10;99.90
7648;DHT22;3866;48.020;11.720;2023-10-08T12:08:41;20.10;99.90
7648;DHT22;3866;48.020;11.720;2023-10-08T12:11:12;20.10;99.90
7648;DHT22;3866;48.020;11.720;2023-10-08T12:13:40;20.10;99.90
7648;DHT22;3866;48.020;11.720;2023-10-08T12:16:14;20.10;99.90
7648;DHT22;3866;48.020;11.720;2023-10-08T12:18:47;20.10;99.90
7648;DHT22;3866;48.020;11.720;2023-10-08T12:21:24;20.10;99.90
7648;DHT22;3866;48.020;11.720;2023-10-08T12:23:51;20.10;99.90
7648;DHT22;3866;48.020;11.720;2023-10-08T12:26:21;20.10;99.90
7648;DHT22;3866;48.020;11.720;2023-10-08T12:28:49;20.10;99.90
7648;DHT22;3866;48.020;11.720;2023-10-08T12:31:16;20.20;99.90
7648;DHT22;3866;48.020;11.720;2023-10-08T12:33:47;20.20;99.90
7648;DHT22;3866;48.020;11.720;2023-10-08T12:36:19;20.10;99.90
7648;DHT22;3866;48.020;11.720;2023-10-08T12:38:49;20.10;99.90
7648;DHT22;3866;48.020;11.720;2023-10-08T12:41:24;20.10;99.90
7648;DHT22;3866;48.020;11.720;2023-10-08T12:43:53;20.20;99.90
7648;DHT22;3866;48.020;11.720;2023-10-08T12:46:20;20.10;99.90
7648;DHT22;3866;48.020;11.720;2023-10-08T12:48:50;20.10;99.90
7648;DHT22;3866;48.020;11.720;2023-10-08T12:51:20;20.10;99.90
7648;DHT22;3866;48.020;11.720;2023-10-08T12:53:49;20.00;99.90
7648;DHT22;3866;48.020;11.720;2023-10-08T12:56:26;20.00;99.90
7648;DHT22;3866;48.020;11.720;2023-10-08T12:59:02;20.00;99.90
7648;DHT22;3866;48.020;11.720;2023-10-08T13:01:32;19.90;99.90
7648;DHT22;3866;48.020;11.720;2023-10-08T13:04:01;19.90;99.90
7648;DHT22;3866;48.020;11.720;2023-10-08T13:06:33;19.90;99.90
7648;DHT22;3866;48.020;11.720;2023-10-08T13:09:03;19.90;99.90
7648;DHT22;3866;48.020;11.720;2023-10-08T13:11:36;19.80;99.90
7648;DHT22;3866;48.020;11.720;2023-10-08T13:14:04;19.80;99.90
7648;DHT22;3866;48.020;11.720;2023-10-08T13:16:32;19.80;99.90
7648;DHT22;3866;48.020;11.720;2023-10-08T13:19:03;19.80;99.90
7648;DHT22;3866;48.020;11.720;2023-10-08T13:21:30;19.80;99.90
7648;DHT22;3866;48.020;11.720;2023-10-08T13:23:58;19.80;99.90
7648;DHT22;3866;48.020;11.720;2023-10-08T13:26:28;19.70;99.90
7648;DHT22;3866;48.020;11.720;2023-10-08T13:28:58;19.70;99.90
7648;DHT22;3866;48.020;11.720;2023-10-08T13:31:25;19.70;99.90
7648;DHT22;3866;48.020;11.720;2023-10-08T13:33:52;19.80;99.90
7648;DHT22;3866;48.020;11.720;2023-10-08T13:36:23;19.80;99.90
7648;DHT22;3866;48.020;11.720;2023-10-08T13:38:50;19.80;99.90
7648;DHT22;3866;48.020;11.720;2023-10-08T13:41:17;19.90;99.90
7648;DHT22;3866;48.020;11.720;2023-10-08T13:43:45;19.90;99.90
7648;DHT22;3866;48.020;11.720;2023-10-08T13:46:15;19.90;99.90
7648;DHT22;3866;48.020;11.720;2023-10-08T13:48:43;19.90;99.90
7648;DHT22;3866;48.020;11.720;2023-10-08T13:51:14;20.00;99.90
7648;DHT22;3866;48.020;11.720;2023-10-08T13:53:48;20.00;99.90
7648;DHT22;3866;48.020;11.720;2023-10-08T13:56:18;20.00;99.90
7648;DHT22;3866;48.020;11.720;2023-10-08T13:58:46;20.00;99.90
7648;DHT22;3866;48.020;11.720;2023-10-08T14:01:16;20.10;99.90
7648;DHT22;3866;48.020;11.720;2023-10-08T14:03:47;20.10;99.90
7648;DHT22;3866;48.020;11.720;2023-10-08T14:06:14;20.00;99.90
7648;DHT22;3866;48.020;11.720;2023-10-08T14:08:42;20.00;99.90
7648;DHT22;3866;48.020;11.720;2023-10-08T14:11:17;20.10;99.90
7648;DHT22;3866;48.020;11.720;2023-10-08T14:13:44;20.10;99.90
7648;DHT22;3866;48.020;11.720;2023-10-08T14:16:13;20.00;99.90
7648;DHT22;3866;48.020;11.720;2023-10-08T14:18:42;19.90;99.90
7648;DHT22;3866;48.020;11.720;2023-10-08T14:21:16;19.90;99.90
7648;DHT22;3866;48.020;11.720;2023-10-08T14:23:44;19.90;99.90
7648;DHT22;3866;48.020;11.720;2023-10-08T14:26:12;19.90;99.90
7648;DHT22;3866;48.020;11.720;2023-10-08T14:28:41;19.90;99.90
7648;DHT22;3866;48.020;11.720;2023-10-08T14:31:10;19.90;99.90
7648;DHT22;3866;48.020;11.720;2023-10-08T14:33:42;20.00;99.90
7648;DHT22;3866;48.020;11.720;2023-10-08T14:36:22;19.90;99.90
7648;DHT22;3866;48.020;11.720;2023-10-08T14:39:07;19.90;99.90
7648;DHT22;3866;48.020;11.720;2023-10-08T14:41:52;19.90;99.90
7648;DHT22;3866;48.020;11.720;2023-10-08T14:44:37;19.90;99.90
7648;DHT22;3866;48.020;11.720;2023-10-08T14:47:04;19.80;99.90
7648;DHT22;3866;48.020;11.720;2023-10-08T14:49:33;19.80;99.90
7648;DHT22;3866;48.020;11.720;2023-10-08T14:52:00;19.70;99.90
7648;DHT22;3866;48.020;11.720;2023-10-08T14:54:29;19.70;99.90
7648;DHT22;3866;48.020;11.720;2023-10-08T14:56:57;19.70;99.90
7648;DHT22;3866;48.020;11.720;2023-10-08T14:59:24;19.70;99.90
7648;DHT22;3866;48.020;11.720;2023-10-08T15:01:53;19.70;99.90
7648;DHT22;3866;48.020;11.720;2023-10-08T15:04:21;19.70;99.90
7648;DHT22;3866;48.020;11.720;2023-10-08T15:06:49;19.70;99.90
7648;DHT22;3866;48.020;11.720;2023-10-08T15:09:16;19.60;99.90
7648;DHT22;3866;48.020;11.720;2023-10-08T15:11:47;19.70;99.90
7648;DHT22;3866;48.020;11.720;2023-10-08T15:14:13;19.60;99.90
7648;DHT22;3866;48.020;11.720;2023-10-08T15:16:41;19.60;99.90
7648;DHT22;3866;48.020;11.720;2023-10-08T15:19:12;19.60;99.90
7648;DHT22;3866;48.020;11.720;2023-10-08T15:21:41;19.60;99.90
7648;DHT22;3866;48.020;11.720;2023-10-08T15:24:10;19.50;99.90
7648;DHT22;3866;48.020;11.720;2023-10-08T15:26:39;19.60;99.90
7648;DHT22;3866;48.020;11.720;2023-10-08T15:29:06;19.60;99.90
7648;DHT22;3866;48.020;11.720;2023-10-08T15:31:33;19.50;99.90
7648;DHT22;3866;48.020;11.720;2023-10-08T15:34:01;19.50;99.90
7648;DHT22;3866;48.020;11.720;2023-10-08T15:36:30;19.40;99.90
7648;DHT22;3866;48.020;11.720;2023-10-08T15:38:57;19.30;99.90
7648;DHT22;3866;48.020;11.720;2023-10-08T15:41:26;19.20;99.90
7648;DHT22;3866;48.020;11.720;2023-10-08T15:43:54;19.20;99.90
7648;DHT22;3866;48.020;11.720;2023-10-08T15:46:24;19.20;99.90
7648;DHT22;3866;48.020;11.720;2023-10-08T15:48:51;19.20;99.90
7648;DHT22;3866;48.020;11.720;2023-10-08T15:51:18;19.10;99.90
7648;DHT22;3866;48.020;11.720;2023-10-08T15:53:45;19.10;99.90
7648;DHT22;3866;48.020;11.720;2023-10-08T15:56:12;19.00;99.90
7648;DHT22;3866;48.020;11.720;2023-10-08T15:58:40;18.80;99.90
7648;DHT22;3866;48.020;11.720;2023-10-08T16:01:07;18.70;99.90
7648;DHT22;3866;48.020;11.720;2023-10-08T16:03:37;18.70;99.90
7648;DHT22;3866;48.020;11.720;2023-10-08T16:06:04;18.70;99.90
7648;DHT22;3866;48.020;11.720;2023-10-08T16:08:31;18.70;99.90
7648;DHT22;3866;48.020;11.720;2023-10-08T16:10:58;18.60;99.90